createdAt,value
2022-10-07T00:00:21.081Z,0.00
2022-10-07T00:01:21.159Z,0.00
2022-10-07T00:02:21.083Z,0.00
2022-10-07T00:03:21.051Z,0.00
2022-10-07T00:04:21.052Z,0.00
2022-10-07T00:05:21.040Z,0.00
2022-10-07T00:06:21.032Z,0.00
2022-10-07T00:07:21.035Z,0.00
2022-10-07T00:08:21.001Z,0.00
2022-10-07T00:09:20.995Z,0.00
2022-10-07T00:10:20.968Z,0.00
2022-10-07T00:11:20.992Z,0.00
2022-10-07T00:12:20.963Z,0.00
2022-10-07T00:13:20.932Z,0.00
2022-10-07T00:14:20.921Z,0.00
2022-10-07T00:15:20.931Z,0.00
2022-10-07T00:16:21.042Z,0.00
2022-10-07T00:17:20.885Z,0.00
2022-10-07T00:18:20.891Z,0.00
2022-10-07T00:19:20.864Z,0.00
2022-10-07T00:20:20.852Z,0.00
2022-10-07T00:21:20.875Z,0.00
2022-10-07T00:22:20.857Z,0.00
2022-10-07T00:23:20.844Z,0.00
2022-10-07T00:24:20.825Z,0.00
2022-10-07T00:25:20.805Z,0.00
2022-10-07T00:26:20.803Z,0.00
2022-10-07T00:27:20.783Z,0.00
2022-10-07T00:28:20.808Z,0.00
2022-10-07T00:29:20.770Z,0.00
2022-10-07T00:30:20.749Z,0.00
2022-10-07T00:31:20.827Z,0.00
2022-10-07T00:32:20.723Z,0.00
2022-10-07T00:33:20.712Z,0.00
2022-10-07T00:34:20.696Z,0.00
2022-10-07T00:35:20.660Z,0.00
2022-10-07T00:36:20.717Z,0.00
2022-10-07T00:37:20.647Z,0.00
2022-10-07T00:38:20.568Z,0.00
2022-10-07T00:39:20.554Z,0.00
2022-10-07T00:40:20.533Z,0.00
2022-10-07T00:41:20.549Z,0.00
2022-10-07T00:42:20.514Z,0.00
2022-10-07T00:43:20.511Z,0.00
2022-10-07T00:44:20.483Z,0.00
2022-10-07T00:45:20.490Z,0.00
2022-10-07T00:46:20.581Z,0.00
2022-10-07T00:47:20.487Z,0.00
2022-10-07T00:48:20.443Z,0.00
2022-10-07T00:49:20.443Z,0.00
2022-10-07T00:50:20.423Z,0.00
2022-10-07T00:51:20.426Z,0.00
2022-10-07T00:52:20.420Z,0.00
2022-10-07T00:53:20.395Z,0.00
2022-10-07T00:54:20.383Z,0.00
2022-10-07T00:55:20.363Z,0.00
2022-10-07T00:56:20.396Z,0.00
2022-10-07T00:57:20.334Z,0.00
2022-10-07T00:58:20.335Z,0.00
2022-10-07T00:59:20.325Z,0.00
2022-10-07T01:00:20.315Z,0.00
2022-10-07T01:01:20.335Z,0.00
2022-10-07T01:02:20.358Z,0.00
2022-10-07T01:03:20.285Z,0.00
2022-10-07T01:04:20.273Z,0.00
2022-10-07T01:05:20.244Z,0.00
2022-10-07T01:06:20.265Z,0.00
2022-10-07T01:07:20.252Z,0.00
2022-10-07T01:08:20.215Z,0.00
2022-10-07T01:09:20.206Z,0.00
2022-10-07T01:10:20.402Z,0.00
2022-10-07T01:11:20.226Z,0.00
2022-10-07T01:12:20.185Z,0.00
2022-10-07T01:13:20.167Z,0.00
2022-10-07T01:14:20.170Z,0.00
2022-10-07T01:15:20.126Z,0.00
2022-10-07T01:16:20.161Z,0.00
2022-10-07T01:17:20.137Z,0.00
2022-10-07T01:18:20.105Z,0.00
2022-10-07T01:19:20.099Z,0.00
2022-10-07T01:20:20.098Z,0.00
2022-10-07T01:21:20.087Z,0.00
2022-10-07T01:22:20.067Z,0.00
2022-10-07T01:23:20.056Z,0.00
2022-10-07T01:24:20.065Z,0.00
2022-10-07T01:25:20.031Z,0.00
2022-10-07T01:26:20.049Z,0.00
2022-10-07T01:27:20.019Z,0.00
2022-10-07T01:28:20.042Z,0.00
2022-10-07T01:29:19.977Z,0.00
2022-10-07T01:30:19.971Z,0.00
2022-10-07T01:31:19.998Z,0.00
2022-10-07T01:32:19.947Z,0.00
2022-10-07T01:33:19.938Z,0.00
2022-10-07T01:34:19.919Z,0.00
2022-10-07T01:35:19.918Z,0.00
2022-10-07T01:36:19.911Z,0.00
2022-10-07T01:37:19.908Z,0.00
2022-10-07T01:38:19.884Z,0.00
2022-10-07T01:39:19.859Z,0.00
2022-10-07T01:40:19.866Z,0.00
2022-10-07T01:41:19.866Z,0.00
2022-10-07T01:42:19.840Z,0.00
2022-10-07T01:43:19.819Z,0.00
2022-10-07T01:44:19.817Z,0.00
2022-10-07T01:45:19.807Z,0.00
2022-10-07T01:46:19.928Z,0.00
2022-10-07T01:47:19.806Z,0.00
2022-10-07T01:48:19.769Z,0.00
2022-10-07T01:49:19.759Z,0.00
2022-10-07T01:50:19.730Z,0.00
2022-10-07T01:51:19.770Z,0.00
2022-10-07T01:52:19.740Z,0.00
2022-10-07T01:53:19.759Z,0.00
2022-10-07T01:54:19.701Z,0.00
2022-10-07T01:55:19.704Z,0.00
2022-10-07T01:56:19.684Z,0.00
2022-10-07T01:57:19.714Z,0.00
2022-10-07T01:58:19.662Z,0.00
2022-10-07T01:59:19.661Z,0.00
2022-10-07T02:00:19.622Z,0.00
2022-10-07T02:01:19.668Z,0.00
2022-10-07T02:02:19.621Z,0.00
2022-10-07T02:03:19.597Z,0.00
2022-10-07T02:04:19.597Z,0.00
2022-10-07T02:05:19.571Z,0.00
2022-10-07T02:06:19.581Z,0.00
2022-10-07T02:07:19.551Z,0.00
2022-10-07T02:08:19.542Z,0.00
2022-10-07T02:09:19.533Z,0.00
2022-10-07T02:10:19.511Z,0.00
2022-10-07T02:11:19.516Z,0.00
2022-10-07T02:12:19.519Z,0.00
2022-10-07T02:13:19.475Z,0.00
2022-10-07T02:14:19.471Z,0.00
2022-10-07T02:15:19.461Z,0.00
2022-10-07T02:16:19.506Z,0.00
2022-10-07T02:17:19.427Z,0.00
2022-10-07T02:18:19.433Z,0.00
2022-10-07T02:19:19.423Z,0.00
2022-10-07T02:20:19.398Z,0.00
2022-10-07T02:21:19.408Z,0.00
2022-10-07T02:22:19.395Z,0.00
2022-10-07T02:23:19.373Z,0.00
2022-10-07T02:24:19.353Z,0.00
2022-10-07T02:25:19.355Z,0.00
2022-10-07T02:26:19.355Z,0.00
2022-10-07T02:27:19.315Z,0.00
2022-10-07T02:28:19.385Z,0.00
2022-10-07T02:29:19.314Z,0.00
2022-10-07T02:30:19.293Z,0.00
2022-10-07T02:31:19.311Z,0.00
2022-10-07T02:32:19.265Z,0.00
2022-10-07T02:33:19.245Z,0.00
2022-10-07T02:34:20.325Z,0.00
2022-10-07T02:35:19.244Z,0.00
2022-10-07T02:36:19.243Z,0.00
2022-10-07T02:37:19.226Z,0.00
2022-10-07T02:38:19.184Z,0.00
2022-10-07T02:39:19.198Z,0.00
2022-10-07T02:40:19.155Z,0.00
2022-10-07T02:41:19.155Z,0.00
2022-10-07T02:42:19.167Z,0.00
2022-10-07T02:43:19.143Z,0.00
2022-10-07T02:44:19.117Z,0.00
2022-10-07T02:45:22.174Z,0.00
2022-10-07T02:46:20.165Z,0.00
2022-10-07T02:47:19.086Z,0.00
2022-10-07T02:48:19.078Z,0.00
2022-10-07T02:49:19.081Z,0.00
2022-10-07T02:50:19.067Z,0.00
2022-10-07T02:51:21.179Z,0.00
2022-10-07T02:52:19.026Z,0.00
2022-10-07T02:53:19.029Z,0.00
2022-10-07T02:54:19.006Z,0.00
2022-10-07T02:55:18.990Z,0.00
2022-10-07T02:56:19.006Z,0.00
2022-10-07T02:57:18.975Z,0.00
2022-10-07T02:58:18.993Z,0.00
2022-10-07T02:59:18.949Z,0.00
2022-10-07T03:00:18.950Z,0.00
2022-10-07T03:01:18.997Z,0.00
2022-10-07T03:02:18.917Z,0.00
2022-10-07T03:03:19.016Z,0.00
2022-10-07T03:04:18.895Z,0.00
2022-10-07T03:05:18.867Z,0.00
2022-10-07T03:06:18.886Z,0.00
2022-10-07T03:07:18.873Z,0.00
2022-10-07T03:08:18.848Z,0.00
2022-10-07T03:09:18.827Z,0.00
2022-10-07T03:10:18.829Z,0.00
2022-10-07T03:11:18.817Z,0.00
2022-10-07T03:12:18.810Z,0.00
2022-10-07T03:13:18.787Z,0.00
2022-10-07T03:14:18.794Z,0.00
2022-10-07T03:15:18.761Z,0.00
2022-10-07T03:16:18.797Z,0.00
2022-10-07T03:17:18.752Z,0.00
2022-10-07T03:18:18.728Z,0.00
2022-10-07T03:19:18.709Z,0.00
2022-10-07T03:20:18.741Z,0.00
2022-10-07T03:21:18.716Z,0.00
2022-10-07T03:22:18.678Z,0.00
2022-10-07T03:23:18.688Z,0.00
2022-10-07T03:24:18.662Z,0.00
2022-10-07T03:25:18.652Z,0.00
2022-10-07T03:26:18.638Z,0.00
2022-10-07T03:27:18.638Z,0.00
2022-10-07T03:28:18.676Z,0.00
2022-10-07T03:29:18.616Z,0.00
2022-10-07T03:30:23.539Z,0.00
2022-10-07T03:31:19.638Z,0.00
2022-10-07T03:32:18.570Z,0.00
2022-10-07T03:33:18.559Z,0.00
2022-10-07T03:34:18.549Z,0.00
2022-10-07T03:35:18.544Z,0.00
2022-10-07T03:36:18.531Z,0.00
2022-10-07T03:37:18.519Z,0.00
2022-10-07T03:38:18.523Z,0.00
2022-10-07T03:39:18.494Z,0.00
2022-10-07T03:40:18.481Z,0.00
2022-10-07T03:41:18.482Z,0.00
2022-10-07T03:42:18.451Z,0.00
2022-10-07T03:43:18.439Z,0.00
2022-10-07T03:44:18.438Z,0.00
2022-10-07T03:45:18.446Z,0.00
2022-10-07T03:46:18.452Z,0.00
2022-10-07T03:47:18.417Z,0.00
2022-10-07T03:48:18.379Z,0.00
2022-10-07T03:49:18.365Z,0.00
2022-10-07T03:50:18.360Z,0.00
2022-10-07T03:51:18.359Z,0.00
2022-10-07T03:52:18.352Z,0.00
2022-10-07T03:53:18.331Z,0.00
2022-10-07T03:54:18.311Z,0.00
2022-10-07T03:55:18.320Z,0.00
2022-10-07T03:56:18.321Z,0.00
2022-10-07T03:57:18.270Z,0.00
2022-10-07T03:58:18.262Z,0.00
2022-10-07T03:59:18.489Z,0.00
2022-10-07T04:00:18.251Z,0.00
2022-10-07T04:01:18.314Z,0.00
2022-10-07T04:02:18.221Z,0.00
2022-10-07T04:03:18.284Z,0.00
2022-10-07T04:04:18.193Z,0.00
2022-10-07T04:05:18.192Z,0.00
2022-10-07T04:06:18.195Z,0.00
2022-10-07T04:07:18.160Z,0.00
2022-10-07T04:08:18.162Z,0.00
2022-10-07T04:09:18.153Z,0.00
2022-10-07T04:10:18.122Z,0.00
2022-10-07T04:11:18.126Z,0.00
2022-10-07T04:12:18.112Z,0.00
2022-10-07T04:13:18.102Z,0.00
2022-10-07T04:14:18.076Z,0.00
2022-10-07T04:15:18.062Z,0.00
2022-10-07T04:16:18.127Z,0.00
2022-10-07T04:17:18.034Z,0.00
2022-10-07T04:18:18.033Z,0.00
2022-10-07T04:19:18.062Z,0.00
2022-10-07T04:20:18.002Z,0.00
2022-10-07T04:21:17.995Z,0.00
2022-10-07T04:22:17.995Z,0.00
2022-10-07T04:23:17.980Z,0.00
2022-10-07T04:24:17.988Z,0.00
2022-10-07T04:25:17.953Z,0.00
2022-10-07T04:26:17.962Z,0.00
2022-10-07T04:27:39.727Z,0.00
2022-10-07T04:28:18.983Z,0.00
2022-10-07T04:29:17.907Z,0.00
2022-10-07T04:30:17.904Z,0.00
2022-10-07T04:31:17.957Z,0.00
2022-10-07T04:32:17.868Z,0.00
2022-10-07T04:33:17.864Z,0.00
2022-10-07T04:34:17.851Z,0.00
2022-10-07T04:35:17.825Z,0.00
2022-10-07T04:36:17.864Z,0.00
2022-10-07T04:37:17.808Z,0.00
2022-10-07T04:38:17.788Z,0.00
2022-10-07T04:39:17.783Z,0.00
2022-10-07T04:40:17.785Z,0.00
2022-10-07T04:41:17.774Z,0.00
2022-10-07T04:42:17.764Z,0.00
2022-10-07T04:43:17.736Z,0.00
2022-10-07T04:44:17.737Z,0.00
2022-10-07T04:45:17.719Z,0.00
2022-10-07T04:46:17.767Z,0.00
2022-10-07T04:47:17.776Z,0.00
2022-10-07T04:48:17.693Z,0.00
2022-10-07T04:49:17.666Z,0.00
2022-10-07T04:50:17.714Z,0.00
2022-10-07T04:51:17.659Z,0.00
2022-10-07T04:52:17.646Z,0.00
2022-10-07T04:53:17.625Z,0.00
2022-10-07T04:54:17.610Z,0.00
2022-10-07T04:55:17.612Z,0.00
2022-10-07T04:56:17.866Z,0.00
2022-10-07T04:57:17.587Z,0.00
2022-10-07T04:58:17.567Z,0.00
2022-10-07T04:59:18.834Z,0.00
2022-10-07T05:00:17.545Z,0.00
2022-10-07T05:01:17.588Z,0.00
2022-10-07T05:02:17.550Z,0.00
2022-10-07T05:03:17.512Z,0.00
2022-10-07T05:04:17.504Z,0.00
2022-10-07T05:05:17.489Z,0.00
2022-10-07T05:06:17.485Z,0.00
2022-10-07T05:07:17.463Z,0.00
2022-10-07T05:08:17.435Z,0.00
2022-10-07T05:09:17.448Z,0.00
2022-10-07T05:10:17.441Z,0.00
2022-10-07T05:11:17.450Z,4.00
2022-10-07T05:12:17.396Z,0.00
2022-10-07T05:13:17.413Z,0.00
2022-10-07T05:14:17.396Z,4.00
2022-10-07T05:15:17.380Z,0.00
2022-10-07T05:16:17.391Z,4.00
2022-10-07T05:17:17.347Z,4.00
2022-10-07T05:18:17.316Z,4.00
2022-10-07T05:19:17.315Z,8.00
2022-10-07T05:20:17.316Z,8.00
2022-10-07T05:21:17.318Z,8.00
2022-10-07T05:22:17.286Z,12.00
2022-10-07T05:23:17.265Z,12.00
2022-10-07T05:24:17.271Z,16.00
2022-10-07T05:25:17.258Z,20.00
2022-10-07T05:26:17.257Z,20.00
2022-10-07T05:27:17.218Z,24.00
2022-10-07T05:28:17.255Z,28.00
2022-10-07T05:29:17.198Z,36.00
2022-10-07T05:30:17.199Z,40.00
2022-10-07T05:31:17.250Z,48.00
2022-10-07T05:32:17.168Z,52.00
2022-10-07T05:33:17.147Z,60.00
2022-10-07T05:34:17.156Z,68.00
2022-10-07T05:35:17.146Z,80.00
2022-10-07T05:36:17.137Z,92.00
2022-10-07T05:37:17.117Z,108.00
2022-10-07T05:38:17.127Z,120.00
2022-10-07T05:39:17.079Z,132.00
2022-10-07T05:40:17.098Z,148.00
2022-10-07T05:41:17.069Z,164.00
2022-10-07T05:42:17.038Z,184.00
2022-10-07T05:43:17.028Z,196.00
2022-10-07T05:44:17.029Z,216.00
2022-10-07T05:45:17.029Z,236.00
2022-10-07T05:46:17.052Z,260.00
2022-10-07T05:47:16.994Z,288.00
2022-10-07T05:48:16.969Z,312.00
2022-10-07T05:49:16.992Z,332.00
2022-10-07T05:50:16.960Z,356.00
2022-10-07T05:51:16.947Z,380.00
2022-10-07T05:52:16.928Z,400.00
2022-10-07T05:53:16.918Z,428.00
2022-10-07T05:54:16.912Z,452.00
2022-10-07T05:55:16.918Z,472.00
2022-10-07T05:56:16.869Z,500.00
2022-10-07T05:57:16.863Z,520.00
2022-10-07T05:58:16.879Z,560.00
2022-10-07T05:59:16.848Z,580.00
2022-10-07T06:00:16.847Z,612.00
2022-10-07T06:01:16.820Z,644.00
2022-10-07T06:02:16.912Z,668.00
2022-10-07T06:03:16.856Z,680.00
2022-10-07T06:04:16.780Z,704.00
2022-10-07T06:05:16.799Z,724.00
2022-10-07T06:06:16.771Z,736.00
2022-10-07T06:07:20.764Z,752.00
2022-10-07T06:08:16.778Z,752.00
2022-10-07T06:09:16.725Z,784.00
2022-10-07T06:10:16.720Z,780.00
2022-10-07T06:11:16.704Z,804.00
2022-10-07T06:12:16.693Z,820.00
2022-10-07T06:13:16.677Z,852.00
2022-10-07T06:14:16.678Z,872.00
2022-10-07T06:15:16.683Z,920.00
2022-10-07T06:16:16.703Z,944.00
2022-10-07T06:17:16.630Z,988.00
2022-10-07T06:18:16.624Z,1016.00
2022-10-07T06:19:16.616Z,1024.00
2022-10-07T06:20:16.592Z,1044.00
2022-10-07T06:21:16.602Z,1084.00
2022-10-07T06:22:16.590Z,1108.00
2022-10-07T06:23:16.560Z,1140.00
2022-10-07T06:24:16.574Z,1172.00
2022-10-07T06:25:16.555Z,1208.00
2022-10-07T06:26:16.544Z,1208.00
2022-10-07T06:27:16.535Z,1216.00
2022-10-07T06:28:16.546Z,1284.00
2022-10-07T06:29:16.482Z,1264.00
2022-10-07T06:30:16.486Z,1244.00
2022-10-07T06:31:16.583Z,1280.00
2022-10-07T06:32:16.502Z,1280.00
2022-10-07T06:33:16.442Z,1312.00
2022-10-07T06:34:16.433Z,1352.00
2022-10-07T06:35:16.451Z,1428.00
2022-10-07T06:36:16.416Z,1504.00
2022-10-07T06:37:16.392Z,1480.00
2022-10-07T06:38:16.400Z,1456.00
2022-10-07T06:39:16.396Z,1520.00
2022-10-07T06:40:16.393Z,1548.00
2022-10-07T06:41:16.382Z,1520.00
2022-10-07T06:42:16.345Z,1552.00
2022-10-07T06:43:16.334Z,1552.00
2022-10-07T06:44:16.334Z,1552.00
2022-10-07T06:45:16.322Z,1640.00
2022-10-07T06:46:16.445Z,1640.00
2022-10-07T06:47:16.307Z,1592.00
2022-10-07T06:48:16.297Z,1624.00
2022-10-07T06:49:16.271Z,1672.00
2022-10-07T06:50:16.288Z,1696.00
2022-10-07T06:51:16.244Z,1776.00
2022-10-07T06:52:16.242Z,1692.00
2022-10-07T06:53:16.234Z,1664.00
2022-10-07T06:54:16.210Z,1688.00
2022-10-07T06:55:16.192Z,1728.00
2022-10-07T06:56:16.193Z,1752.00
2022-10-07T06:57:43.719Z,1752.00
2022-10-07T06:58:17.164Z,1824.00
2022-10-07T06:59:16.167Z,1784.00
2022-10-07T07:00:16.163Z,1820.00
2022-10-07T07:01:16.164Z,1960.00
2022-10-07T07:02:16.173Z,1916.00
2022-10-07T07:03:16.119Z,1924.00
2022-10-07T07:04:16.076Z,1968.00
2022-10-07T07:05:16.090Z,1912.00
2022-10-07T07:06:16.092Z,2056.00
2022-10-07T07:07:16.074Z,1940.00
2022-10-07T07:08:16.034Z,1920.00
2022-10-07T07:09:16.060Z,2008.00
2022-10-07T07:10:16.052Z,2124.00
2022-10-07T07:11:16.037Z,2116.00
2022-10-07T07:12:15.985Z,2828.00
2022-10-07T07:13:16.072Z,2624.00
2022-10-07T07:14:15.999Z,2248.00
2022-10-07T07:15:16.232Z,2308.00
2022-10-07T07:16:16.044Z,2348.00
2022-10-07T07:17:15.963Z,2376.00
2022-10-07T07:18:15.926Z,2544.00
2022-10-07T07:19:15.926Z,2416.00
2022-10-07T07:20:15.927Z,2152.00
2022-10-07T07:21:15.940Z,2628.00
2022-10-07T07:22:15.892Z,2500.00
2022-10-07T07:23:15.867Z,2716.00
2022-10-07T07:24:15.867Z,2364.00
2022-10-07T07:25:15.866Z,2344.00
2022-10-07T07:26:15.845Z,2592.00
2022-10-07T07:27:15.845Z,2696.00
2022-10-07T07:28:15.877Z,2588.00
2022-10-07T07:29:15.813Z,2532.00
2022-10-07T07:30:15.854Z,2616.00
2022-10-07T07:31:15.840Z,2628.00
2022-10-07T07:32:15.766Z,2480.00
2022-10-07T07:33:15.783Z,2740.00
2022-10-07T07:34:15.755Z,2640.00
2022-10-07T07:35:15.766Z,2772.00
2022-10-07T07:36:15.734Z,2824.00
2022-10-07T07:37:15.738Z,2776.00
2022-10-07T07:38:15.729Z,2844.00
2022-10-07T07:39:15.683Z,2856.00
2022-10-07T07:40:15.697Z,2888.00
2022-10-07T07:41:15.667Z,2900.00
2022-10-07T07:42:15.674Z,2912.00
2022-10-07T07:43:15.647Z,2948.00
2022-10-07T07:44:15.642Z,2924.00
2022-10-07T07:45:15.633Z,2956.00
2022-10-07T07:46:15.661Z,2992.00
2022-10-07T07:47:15.609Z,3012.00
2022-10-07T07:48:15.597Z,3036.00
2022-10-07T07:49:15.585Z,2980.00
2022-10-07T07:50:15.597Z,3012.00
2022-10-07T07:51:15.576Z,3000.00
2022-10-07T07:52:15.558Z,3052.00
2022-10-07T07:53:15.538Z,3116.00
2022-10-07T07:54:15.528Z,3048.00
2022-10-07T07:55:15.530Z,3000.00
2022-10-07T07:56:15.489Z,3044.00
2022-10-07T07:57:15.520Z,2984.00
2022-10-07T07:58:15.471Z,2924.00
2022-10-07T07:59:15.469Z,3020.00
2022-10-07T08:00:15.452Z,2976.00
2022-10-07T08:01:15.517Z,2968.00
2022-10-07T08:02:15.507Z,2992.00
2022-10-07T08:03:15.418Z,3052.00
2022-10-07T08:04:15.413Z,3052.00
2022-10-07T08:05:17.140Z,3032.00
2022-10-07T08:06:15.395Z,3000.00
2022-10-07T08:07:15.632Z,3032.00
2022-10-07T08:08:15.372Z,3108.00
2022-10-07T08:09:15.350Z,3076.00
2022-10-07T08:10:15.362Z,3068.00
2022-10-07T08:11:15.340Z,3044.00
2022-10-07T08:12:15.335Z,3036.00
2022-10-07T08:13:15.321Z,3108.00
2022-10-07T08:14:15.291Z,3112.00
2022-10-07T08:15:15.297Z,3164.00
2022-10-07T08:16:15.359Z,3164.00
2022-10-07T08:17:15.262Z,3160.00
2022-10-07T08:18:15.250Z,3172.00
2022-10-07T08:19:15.233Z,3176.00
2022-10-07T08:20:15.258Z,3104.00
2022-10-07T08:21:15.220Z,3180.00
2022-10-07T08:22:15.231Z,3224.00
2022-10-07T08:23:15.205Z,3244.00
2022-10-07T08:24:15.188Z,3224.00
2022-10-07T08:25:15.180Z,3276.00
2022-10-07T08:26:15.150Z,3292.00
2022-10-07T08:27:15.154Z,3176.00
2022-10-07T08:28:15.193Z,3212.00
2022-10-07T08:29:15.122Z,3236.00
2022-10-07T08:30:15.105Z,3252.00
2022-10-07T08:31:15.198Z,3316.00
2022-10-07T08:32:15.092Z,3340.00
2022-10-07T08:33:15.081Z,3380.00
2022-10-07T08:34:15.073Z,3388.00
2022-10-07T08:35:15.054Z,3412.00
2022-10-07T08:36:15.042Z,3380.00
2022-10-07T08:37:15.053Z,3388.00
2022-10-07T08:38:15.026Z,3416.00
2022-10-07T08:39:15.022Z,3452.00
2022-10-07T08:40:15.003Z,3416.00
2022-10-07T08:41:14.992Z,3396.00
2022-10-07T08:42:14.993Z,3404.00
2022-10-07T08:43:14.967Z,3388.00
2022-10-07T08:44:16.866Z,3444.00
2022-10-07T08:45:14.947Z,3380.00
2022-10-07T08:46:14.980Z,3364.00
2022-10-07T08:47:14.934Z,3360.00
2022-10-07T08:48:14.902Z,3380.00
2022-10-07T08:49:14.895Z,3336.00
2022-10-07T08:50:19.203Z,3376.00
2022-10-07T08:51:14.871Z,3356.00
2022-10-07T08:52:14.862Z,3344.00
2022-10-07T08:53:14.837Z,3356.00
2022-10-07T08:54:14.845Z,3380.00
2022-10-07T08:55:14.853Z,3344.00
2022-10-07T08:56:14.817Z,3328.00
2022-10-07T08:57:14.814Z,3340.00
2022-10-07T08:58:14.785Z,3324.00
2022-10-07T08:59:14.773Z,3328.00
2022-10-07T09:00:14.769Z,3320.00
2022-10-07T09:01:14.774Z,3324.00
2022-10-07T09:02:14.815Z,3328.00
2022-10-07T09:03:14.715Z,3344.00
2022-10-07T09:04:14.726Z,3328.00
2022-10-07T09:05:14.738Z,3484.00
2022-10-07T09:06:14.688Z,3344.00
2022-10-07T09:07:14.665Z,3448.00
2022-10-07T09:08:14.677Z,3364.00
2022-10-07T09:09:14.669Z,3320.00
2022-10-07T09:10:14.653Z,3288.00
2022-10-07T09:11:14.627Z,3352.00
2022-10-07T09:12:14.665Z,3328.00
2022-10-07T09:13:14.607Z,3332.00
2022-10-07T09:14:14.599Z,3340.00
2022-10-07T09:15:14.597Z,3276.00
2022-10-07T09:16:14.627Z,3328.00
2022-10-07T09:17:14.566Z,3356.00
2022-10-07T09:18:14.557Z,3392.00
2022-10-07T09:19:14.549Z,3316.00
2022-10-07T09:20:14.518Z,3312.00
2022-10-07T09:21:14.518Z,3360.00
2022-10-07T09:22:14.530Z,3352.00
2022-10-07T09:23:14.498Z,3372.00
2022-10-07T09:24:14.481Z,3376.00
2022-10-07T09:25:14.512Z,3424.00
2022-10-07T09:26:14.449Z,3360.00
2022-10-07T09:27:14.457Z,3368.00
2022-10-07T09:28:14.478Z,3408.00
2022-10-07T09:29:14.444Z,3364.00
2022-10-07T09:30:14.419Z,3332.00
2022-10-07T09:31:14.442Z,3348.00
2022-10-07T09:32:14.390Z,3412.00
2022-10-07T09:33:14.369Z,3388.00
2022-10-07T09:34:14.373Z,3416.00
2022-10-07T09:35:14.371Z,3420.00
2022-10-07T09:36:14.367Z,3428.00
2022-10-07T09:37:14.330Z,3484.00
2022-10-07T09:38:14.319Z,3584.00
2022-10-07T09:39:14.318Z,3468.00
2022-10-07T09:40:14.303Z,3484.00
2022-10-07T09:41:14.312Z,3480.00
2022-10-07T09:42:14.297Z,3508.00
2022-10-07T09:43:14.387Z,3520.00
2022-10-07T09:44:14.252Z,3548.00
2022-10-07T09:45:14.273Z,3524.00
2022-10-07T09:46:14.310Z,3500.00
2022-10-07T09:47:14.219Z,3492.00
2022-10-07T09:48:14.207Z,3476.00
2022-10-07T09:49:14.210Z,3480.00
2022-10-07T09:50:14.182Z,3500.00
2022-10-07T09:51:14.189Z,3520.00
2022-10-07T09:52:14.182Z,3524.00
2022-10-07T09:53:14.162Z,3524.00
2022-10-07T09:54:14.142Z,3532.00
2022-10-07T09:55:14.144Z,3532.00
2022-10-07T09:56:14.123Z,3588.00
2022-10-07T09:57:18.239Z,3588.00
2022-10-07T09:58:14.094Z,3584.00
2022-10-07T09:59:14.093Z,3636.00
2022-10-07T10:00:14.090Z,3636.00
2022-10-07T10:01:14.063Z,3628.00
2022-10-07T10:02:14.228Z,3640.00
2022-10-07T10:03:14.094Z,3660.00
2022-10-07T10:04:14.026Z,3676.00
2022-10-07T10:05:14.033Z,3696.00
2022-10-07T10:06:14.025Z,3720.00
2022-10-07T10:07:13.985Z,3756.00
2022-10-07T10:08:13.979Z,3804.00
2022-10-07T10:09:18.103Z,3712.00
2022-10-07T10:10:14.979Z,3740.00
2022-10-07T10:11:13.965Z,3728.00
2022-10-07T10:12:13.960Z,3760.00
2022-10-07T10:13:13.924Z,3764.00
2022-10-07T10:14:13.906Z,3784.00
2022-10-07T10:15:13.904Z,3804.00
2022-10-07T10:16:13.961Z,3804.00
2022-10-07T10:17:13.871Z,3816.00
2022-10-07T10:18:13.870Z,3888.00
2022-10-07T10:19:13.876Z,3816.00
2022-10-07T10:20:13.847Z,3840.00
2022-10-07T10:21:13.834Z,3864.00
2022-10-07T10:22:13.817Z,3872.00
2022-10-07T10:23:13.808Z,3868.00
2022-10-07T10:24:13.789Z,3880.00
2022-10-07T10:25:13.818Z,3872.00
2022-10-07T10:26:13.780Z,3928.00
2022-10-07T10:27:13.777Z,3880.00
2022-10-07T10:28:13.785Z,3920.00
2022-10-07T10:29:13.747Z,3904.00
2022-10-07T10:30:13.727Z,3948.00
2022-10-07T10:31:13.753Z,3960.00
2022-10-07T10:32:13.698Z,3936.00
2022-10-07T10:33:13.699Z,3956.00
2022-10-07T10:34:13.699Z,3972.00
2022-10-07T10:35:13.682Z,3984.00
2022-10-07T10:36:13.778Z,3968.00
2022-10-07T10:37:14.638Z,4000.00
2022-10-07T10:38:13.629Z,4000.00
2022-10-07T10:39:13.629Z,4016.00
2022-10-07T10:40:13.642Z,4032.00
2022-10-07T10:41:13.599Z,4008.00
2022-10-07T10:42:13.585Z,4028.00
2022-10-07T10:43:13.578Z,4032.00
2022-10-07T10:44:13.561Z,4044.00
2022-10-07T10:45:13.562Z,4040.00
2022-10-07T10:46:13.585Z,4048.00
2022-10-07T10:47:13.524Z,4056.00
2022-10-07T10:48:13.510Z,4056.00
2022-10-07T10:49:13.501Z,4060.00
2022-10-07T10:50:13.512Z,4068.00
2022-10-07T10:51:13.489Z,4072.00
2022-10-07T10:52:13.790Z,4088.00
2022-10-07T10:53:13.473Z,4068.00
2022-10-07T10:54:13.469Z,4076.00
2022-10-07T10:55:13.454Z,4088.00
2022-10-07T10:56:13.423Z,4100.00
2022-10-07T10:57:13.413Z,4104.00
2022-10-07T10:58:13.392Z,4100.00
2022-10-07T10:59:13.373Z,4096.00
2022-10-07T11:00:13.386Z,4176.00
2022-10-07T11:01:13.438Z,4116.00
2022-10-07T11:02:13.410Z,4080.00
2022-10-07T11:03:13.390Z,4100.00
2022-10-07T11:04:13.327Z,4096.00
2022-10-07T11:05:13.304Z,4100.00
2022-10-07T11:06:15.730Z,4076.00
2022-10-07T11:07:13.464Z,4080.00
2022-10-07T11:08:13.284Z,4080.00
2022-10-07T11:09:13.264Z,4076.00
2022-10-07T11:10:13.265Z,4076.00
2022-10-07T11:11:13.234Z,4048.00
2022-10-07T11:12:13.244Z,4048.00
2022-10-07T11:13:13.242Z,4028.00
2022-10-07T11:14:13.213Z,4072.00
2022-10-07T11:15:13.197Z,4064.00
2022-10-07T11:16:13.272Z,4060.00
2022-10-07T11:17:13.191Z,4044.00
2022-10-07T11:18:13.176Z,4036.00
2022-10-07T11:19:13.147Z,4052.00
2022-10-07T11:20:13.155Z,4056.00
2022-10-07T11:21:13.137Z,4036.00
2022-10-07T11:22:13.150Z,4056.00
2022-10-07T11:23:13.151Z,4080.00
2022-10-07T11:24:13.106Z,4068.00
2022-10-07T11:25:13.109Z,4068.00
2022-10-07T11:26:13.070Z,4072.00
2022-10-07T11:27:13.100Z,4120.00
2022-10-07T11:28:13.083Z,4100.00
2022-10-07T11:29:13.049Z,4100.00
2022-10-07T11:30:13.068Z,4100.00
2022-10-07T11:31:13.070Z,4124.00
2022-10-07T11:32:13.030Z,4112.00
2022-10-07T11:33:13.007Z,4128.00
2022-10-07T11:34:13.021Z,4160.00
2022-10-07T11:35:12.979Z,4140.00
2022-10-07T11:36:12.960Z,4132.00
2022-10-07T11:37:12.980Z,4156.00
2022-10-07T11:38:12.964Z,4144.00
2022-10-07T11:39:12.939Z,4128.00
2022-10-07T11:40:13.221Z,4136.00
2022-10-07T11:41:12.922Z,4172.00
2022-10-07T11:42:12.922Z,4156.00
2022-10-07T11:43:12.889Z,4180.00
2022-10-07T11:44:12.900Z,4220.00
2022-10-07T11:45:12.893Z,4228.00
2022-10-07T11:46:12.916Z,4208.00
2022-10-07T11:47:12.874Z,4224.00
2022-10-07T11:48:12.847Z,4216.00
2022-10-07T11:49:12.832Z,4212.00
2022-10-07T11:50:12.853Z,4184.00
2022-10-07T11:51:12.817Z,4156.00
2022-10-07T11:52:12.824Z,4176.00
2022-10-07T11:53:12.784Z,4152.00
2022-10-07T11:54:12.785Z,4152.00
2022-10-07T11:55:12.795Z,4148.00
2022-10-07T11:56:12.756Z,4148.00
2022-10-07T11:57:12.744Z,4140.00
2022-10-07T11:58:12.725Z,4120.00
2022-10-07T11:59:12.716Z,4128.00
2022-10-07T12:00:12.758Z,4200.00
2022-10-07T12:01:12.704Z,4128.00
2022-10-07T12:02:15.811Z,4104.00
2022-10-07T12:03:12.705Z,4128.00
2022-10-07T12:04:13.606Z,4152.00
2022-10-07T12:05:12.668Z,4096.00
2022-10-07T12:06:12.646Z,4080.00
2022-10-07T12:07:12.644Z,4064.00
2022-10-07T12:08:12.628Z,4072.00
2022-10-07T12:09:12.618Z,4020.00
2022-10-07T12:10:12.631Z,4004.00
2022-10-07T12:11:12.589Z,4008.00
2022-10-07T12:12:12.567Z,3980.00
2022-10-07T12:13:12.578Z,3968.00
2022-10-07T12:14:12.558Z,3952.00
2022-10-07T12:15:12.558Z,4008.00
2022-10-07T12:16:12.603Z,3976.00
2022-10-07T12:17:12.528Z,3908.00
2022-10-07T12:18:12.512Z,3908.00
2022-10-07T12:19:12.519Z,3888.00
2022-10-07T12:20:12.517Z,3816.00
2022-10-07T12:21:12.478Z,3840.00
2022-10-07T12:22:12.485Z,3920.00
2022-10-07T12:23:12.476Z,3900.00
2022-10-07T12:24:12.461Z,3996.00
2022-10-07T12:25:12.438Z,3932.00
2022-10-07T12:26:12.453Z,3936.00
2022-10-07T12:27:12.449Z,3912.00
2022-10-07T12:28:12.452Z,3920.00
2022-10-07T12:29:12.400Z,3912.00
2022-10-07T12:30:12.404Z,3864.00
2022-10-07T12:31:12.440Z,3884.00
2022-10-07T12:32:12.361Z,3868.00
2022-10-07T12:33:12.347Z,3876.00
2022-10-07T12:34:12.332Z,3852.00
2022-10-07T12:35:12.321Z,3848.00
2022-10-07T12:36:12.322Z,3860.00
2022-10-07T12:37:12.342Z,3804.00